TFM - Tactical Decision Aid
ID: Runway Winds: CIG/VIS Threshold:

KIAH - Houston/Bush Intl, TX, US

Updated at: 2057 UTC 17 Jun 2019
Latest TAF at: 1735 UTC 17 Jun 2019

TAF Board

Time2053Z 17/21Z 17/22Z 17/23Z 18/00Z 18/01Z 18/02Z 18/03Z 18/04Z 18/05Z 18/06Z 18/07Z 18/08Z 18/09Z>>
Type OBS PRVL PRVL PRVL PRVL PRVL PRVL PRVL PRVL PRVL PRVL PRVL PRVL PRVL
VIS 10 >6 >6 >6 >6 >6 >6 >6 >6 >6 >6 >6 >6 >6
CIG 250 80 80 80 80 80 -- -- -- -- -- -- -- --
Cover BKN BKN BKN BKN BKN BKN SCT SCT SCT SCT SCT SCT SCT SCT
FltCat VFR VFR VFR VFR VFR VFR VFR VFR VFR VFR VFR VFR VFR VFR
WX -- VCSH VCSH VCSH VCSH VCSH -- -- -- -- -- -- -- --
WDir 190 180 180 180 180 180 VRB VRB VRB VRB VRB VRB VRB VRB
WSpd 4 8 8 8 8 8 4 4 4 4 4 4 4 4
WGst -- -- -- -- -- -- -- -- -- -- -- -- -- --

TDA Impact Legend

  None Marginal Slight Moderate High
Visibility (sm) >5 3≤X≤5 1≤X<3 0.5≤X<1 <0.5
Ceiling (100 ft) >30 10≤X≤30 4≤X<10 2≤X<4 <2
Wind Speed (kt) <15 15≤X<25 25≤X<30 ≥30
Wind Gust (kt) <15 15≤X<25 25≤X<35 ≥35
Weather No Wx Reported VCTS -TS,-FZRA TS,FZRA +TS,+FZRA
TAF
KIAH 171735Z 1718/1824 VRB05KT P6SM SCT015 SCT150
  FM172000 18008KT P6SM VCSH FEW025 BKN080
  FM180200 VRB04KT P6SM SCT150
  FM181200 VRB03KT P6SM SCT025
  FM181900 23003KT P6SM VCSH FEW035 SCT250


METAR
KIAH 172053Z 19004KT 10SM FEW032 FEW150 BKN250 30/22 A2987 RMK AO2 SLP114 T03000222 58023
KIAH 171953Z 13004KT 10SM FEW028 FEW150 BKN250 29/23 A2991 RMK AO2 SLP126 T02940228
KIAH 171853Z VRB03KT 10SM FEW022 SCT150 BKN250 28/22 A2992 RMK AO2 SLP131 T02830222
KIAH 171753Z VRB04KT 10SM FEW018 SCT150 BKN250 27/23 A2994 RMK AO2 SLP137 T02720228 10272 20211 50011

Radar Display
Forecast Discussion